Terminal Aerodrome Forecast
Issued by NWS

Home | Current Version | Previous Version | Text Only | Print | Product List | Glossary On
Versions: 1 2 3 4 5 6 7 8 9 10 11 12 13 14 15
589
FTAK31 PAJN 062320
TAFAWG
TAF
PAWG 062320Z 0700/0724 VRB04KT P6SM FEW015 BKN030 BKN050
     FM070200 10007KT P6SM SCT030 BKN050 BKN070
     FM070900 10013KT P6SM VCSH SCT030 BKN040 OVC060
     FM071100 11015G25KT P6SM -RA BKN035 OVC050
     FM071700 10015KT P6SM -RA BKN035 OVC050
      AMD LTD TO CLD VIS AND WIND 0706/0715=

USA.gov is the U.S. government's official web portal to all federal, state and local government web resources and services.